sensor_id;sensor_type;location;lat;lon;timestamp;P1;durP1;ratioP1;P2;durP2;ratioP2
7116;SDS011;3600;48.568;7.870;2023-05-01T00:01:48;6.55;;;5.82;;
7116;SDS011;3600;48.568;7.870;2023-05-01T00:04:15;6.35;;;5.75;;
7116;SDS011;3600;48.568;7.870;2023-05-01T00:06:42;7.07;;;6.47;;
7116;SDS011;3600;48.568;7.870;2023-05-01T00:09:09;6.68;;;6.18;;
7116;SDS011;3600;48.568;7.870;2023-05-01T00:11:36;6.82;;;6.10;;
7116;SDS011;3600;48.568;7.870;2023-05-01T00:14:03;6.32;;;5.82;;
7116;SDS011;3600;48.568;7.870;2023-05-01T00:16:29;6.05;;;5.55;;
7116;SDS011;3600;48.568;7.870;2023-05-01T00:18:56;6.57;;;5.97;;
7116;SDS011;3600;48.568;7.870;2023-05-01T00:21:23;6.10;;;5.57;;
7116;SDS011;3600;48.568;7.870;2023-05-01T00:23:50;5.93;;;5.32;;
7116;SDS011;3600;48.568;7.870;2023-05-01T00:26:17;6.25;;;5.72;;
7116;SDS011;3600;48.568;7.870;2023-05-01T00:28:44;6.40;;;5.80;;
7116;SDS011;3600;48.568;7.870;2023-05-01T00:31:11;5.50;;;5.07;;
7116;SDS011;3600;48.568;7.870;2023-05-01T00:33:38;5.70;;;5.30;;
7116;SDS011;3600;48.568;7.870;2023-05-01T00:36:05;6.45;;;5.75;;
7116;SDS011;3600;48.568;7.870;2023-05-01T00:38:32;5.93;;;5.32;;
7116;SDS011;3600;48.568;7.870;2023-05-01T00:40:59;6.22;;;5.63;;
7116;SDS011;3600;48.568;7.870;2023-05-01T00:43:26;5.53;;;5.03;;
7116;SDS011;3600;48.568;7.870;2023-05-01T00:45:52;6.70;;;6.10;;
7116;SDS011;3600;48.568;7.870;2023-05-01T00:48:19;6.03;;;5.50;;
7116;SDS011;3600;48.568;7.870;2023-05-01T00:50:46;6.00;;;5.47;;
7116;SDS011;3600;48.568;7.870;2023-05-01T00:53:15;7.82;;;5.40;;
7116;SDS011;3600;48.568;7.870;2023-05-01T00:55:42;6.50;;;5.90;;
7116;SDS011;3600;48.568;7.870;2023-05-01T00:58:10;6.57;;;5.55;;
7116;SDS011;3600;48.568;7.870;2023-05-01T01:00:37;6.25;;;5.45;;
7116;SDS011;3600;48.568;7.870;2023-05-01T01:03:04;5.95;;;5.35;;
7116;SDS011;3600;48.568;7.870;2023-05-01T01:10:53;6.03;;;5.43;;
7116;SDS011;3600;48.568;7.870;2023-05-01T01:16:15;6.18;;;5.57;;
7116;SDS011;3600;48.568;7.870;2023-05-01T01:18:52;6.38;;;5.80;;
7116;SDS011;3600;48.568;7.870;2023-05-01T01:35:25;6.75;;;5.72;;
7116;SDS011;3600;48.568;7.870;2023-05-01T01:40:37;6.30;;;5.72;;
7116;SDS011;3600;48.568;7.870;2023-05-01T01:43:10;7.63;;;5.93;;
7116;SDS011;3600;48.568;7.870;2023-05-01T01:45:42;6.63;;;5.93;;
7116;SDS011;3600;48.568;7.870;2023-05-01T01:48:22;6.13;;;5.53;;
7116;SDS011;3600;48.568;7.870;2023-05-01T01:50:56;5.90;;;5.35;;
7116;SDS011;3600;48.568;7.870;2023-05-01T01:53:25;7.53;;;5.53;;
7116;SDS011;3600;48.568;7.870;2023-05-01T01:55:53;6.05;;;5.50;;
7116;SDS011;3600;48.568;7.870;2023-05-01T01:58:22;7.30;;;6.20;;
7116;SDS011;3600;48.568;7.870;2023-05-01T02:00:52;6.85;;;6.15;;
7116;SDS011;3600;48.568;7.870;2023-05-01T02:03:23;6.20;;;5.60;;
7116;SDS011;3600;48.568;7.870;2023-05-01T02:05:56;6.00;;;5.50;;
7116;SDS011;3600;48.568;7.870;2023-05-01T02:08:24;7.15;;;6.47;;
7116;SDS011;3600;48.568;7.870;2023-05-01T02:10:55;6.57;;;5.85;;
7116;SDS011;3600;48.568;7.870;2023-05-01T02:13:27;7.10;;;6.47;;
7116;SDS011;3600;48.568;7.870;2023-05-01T02:15:59;7.63;;;6.85;;
7116;SDS011;3600;48.568;7.870;2023-05-01T02:18:28;7.88;;;6.95;;
7116;SDS011;3600;48.568;7.870;2023-05-01T02:20:56;7.88;;;7.18;;
7116;SDS011;3600;48.568;7.870;2023-05-01T02:23:25;6.90;;;6.30;;
7116;SDS011;3600;48.568;7.870;2023-05-01T02:25:53;6.80;;;6.20;;
7116;SDS011;3600;48.568;7.870;2023-05-01T02:28:22;7.28;;;6.65;;
7116;SDS011;3600;48.568;7.870;2023-05-01T02:30:51;6.78;;;6.18;;
7116;SDS011;3600;48.568;7.870;2023-05-01T02:33:18;6.72;;;6.13;;
7116;SDS011;3600;48.568;7.870;2023-05-01T02:35:45;6.85;;;6.15;;
7116;SDS011;3600;48.568;7.870;2023-05-01T02:38:12;7.57;;;6.40;;
7116;SDS011;3600;48.568;7.870;2023-05-01T02:40:41;6.85;;;6.22;;
7116;SDS011;3600;48.568;7.870;2023-05-01T02:43:12;6.95;;;6.25;;
7116;SDS011;3600;48.568;7.870;2023-05-01T02:45:43;6.53;;;6.03;;
7116;SDS011;3600;48.568;7.870;2023-05-01T02:48:12;7.30;;;6.60;;
7116;SDS011;3600;48.568;7.870;2023-05-01T02:50:43;6.75;;;6.07;;
7116;SDS011;3600;48.568;7.870;2023-05-01T02:53:11;5.70;;;5.20;;
7116;SDS011;3600;48.568;7.870;2023-05-01T02:55:40;6.50;;;5.60;;
7116;SDS011;3600;48.568;7.870;2023-05-01T02:58:14;7.00;;;6.40;;
7116;SDS011;3600;48.568;7.870;2023-05-01T03:00:42;8.77;;;6.68;;
7116;SDS011;3600;48.568;7.870;2023-05-01T03:03:10;7.15;;;6.40;;
7116;SDS011;3600;48.568;7.870;2023-05-01T03:05:37;7.57;;;6.88;;
7116;SDS011;3600;48.568;7.870;2023-05-01T03:08:04;9.10;;;6.90;;
7116;SDS011;3600;48.568;7.870;2023-05-01T03:10:32;9.50;;;7.10;;
7116;SDS011;3600;48.568;7.870;2023-05-01T03:12:59;7.57;;;6.95;;
7116;SDS011;3600;48.568;7.870;2023-05-01T03:15:26;7.70;;;7.00;;
7116;SDS011;3600;48.568;7.870;2023-05-01T03:17:53;7.93;;;7.13;;
7116;SDS011;3600;48.568;7.870;2023-05-01T03:20:19;8.80;;;7.20;;
7116;SDS011;3600;48.568;7.870;2023-05-01T03:22:46;7.28;;;6.68;;
7116;SDS011;3600;48.568;7.870;2023-05-01T03:25:13;6.80;;;6.20;;
7116;SDS011;3600;48.568;7.870;2023-05-01T03:27:40;7.47;;;6.63;;
7116;SDS011;3600;48.568;7.870;2023-05-01T03:30:07;6.93;;;6.28;;
7116;SDS011;3600;48.568;7.870;2023-05-01T03:32:35;7.50;;;6.85;;
7116;SDS011;3600;48.568;7.870;2023-05-01T03:35:02;8.27;;;6.95;;
7116;SDS011;3600;48.568;7.870;2023-05-01T03:37:29;8.27;;;7.57;;
7116;SDS011;3600;48.568;7.870;2023-05-01T03:39:56;8.30;;;7.50;;
7116;SDS011;3600;48.568;7.870;2023-05-01T03:42:23;7.68;;;7.07;;
7116;SDS011;3600;48.568;7.870;2023-05-01T03:44:50;8.07;;;7.38;;
7116;SDS011;3600;48.568;7.870;2023-05-01T03:47:17;7.60;;;6.90;;
7116;SDS011;3600;48.568;7.870;2023-05-01T03:49:44;7.07;;;6.43;;
7116;SDS011;3600;48.568;7.870;2023-05-01T03:52:11;7.50;;;6.90;;
7116;SDS011;3600;48.568;7.870;2023-05-01T03:54:38;8.02;;;7.30;;
7116;SDS011;3600;48.568;7.870;2023-05-01T03:57:05;8.48;;;7.70;;
7116;SDS011;3600;48.568;7.870;2023-05-01T03:59:32;8.68;;;7.88;;
7116;SDS011;3600;48.568;7.870;2023-05-01T04:01:59;9.15;;;8.30;;
7116;SDS011;3600;48.568;7.870;2023-05-01T04:04:26;8.27;;;7.57;;
7116;SDS011;3600;48.568;7.870;2023-05-01T04:06:55;7.63;;;6.82;;
7116;SDS011;3600;48.568;7.870;2023-05-01T04:09:21;7.60;;;6.90;;
7116;SDS011;3600;48.568;7.870;2023-05-01T04:11:48;9.07;;;6.82;;
7116;SDS011;3600;48.568;7.870;2023-05-01T04:14:15;7.25;;;6.55;;
7116;SDS011;3600;48.568;7.870;2023-05-01T04:16:41;7.47;;;6.82;;
7116;SDS011;3600;48.568;7.870;2023-05-01T04:19:08;8.80;;;7.63;;
7116;SDS011;3600;48.568;7.870;2023-05-01T04:21:35;7.65;;;7.05;;
7116;SDS011;3600;48.568;7.870;2023-05-01T04:24:02;7.78;;;6.97;;
7116;SDS011;3600;48.568;7.870;2023-05-01T04:26:29;8.23;;;7.28;;
7116;SDS011;3600;48.568;7.870;2023-05-01T04:28:55;8.90;;;8.02;;
7116;SDS011;3600;48.568;7.870;2023-05-01T04:31:22;8.98;;;7.45;;
7116;SDS011;3600;48.568;7.870;2023-05-01T04:33:49;8.25;;;7.38;;
7116;SDS011;3600;48.568;7.870;2023-05-01T04:36:16;7.90;;;7.05;;
7116;SDS011;3600;48.568;7.870;2023-05-01T04:38:42;7.50;;;6.80;;
7116;SDS011;3600;48.568;7.870;2023-05-01T04:41:09;7.60;;;6.90;;
7116;SDS011;3600;48.568;7.870;2023-05-01T04:43:36;8.32;;;7.63;;
7116;SDS011;3600;48.568;7.870;2023-05-01T04:46:03;7.18;;;6.47;;
7116;SDS011;3600;48.568;7.870;2023-05-01T04:48:30;8.45;;;7.65;;
7116;SDS011;3600;48.568;7.870;2023-05-01T04:50:56;8.63;;;7.80;;
7116;SDS011;3600;48.568;7.870;2023-05-01T04:53:23;8.52;;;7.68;;
7116;SDS011;3600;48.568;7.870;2023-05-01T04:55:50;8.50;;;7.70;;
7116;SDS011;3600;48.568;7.870;2023-05-01T04:58:17;8.68;;;7.88;;
7116;SDS011;3600;48.568;7.870;2023-05-01T05:00:44;8.60;;;7.80;;
7116;SDS011;3600;48.568;7.870;2023-05-01T05:03:10;8.18;;;7.38;;
7116;SDS011;3600;48.568;7.870;2023-05-01T05:05:37;7.40;;;6.80;;
7116;SDS011;3600;48.568;7.870;2023-05-01T05:08:04;8.30;;;7.40;;
7116;SDS011;3600;48.568;7.870;2023-05-01T05:10:31;8.07;;;7.05;;
7116;SDS011;3600;48.568;7.870;2023-05-01T05:12:58;7.88;;;7.07;;
7116;SDS011;3600;48.568;7.870;2023-05-01T05:15:25;7.70;;;7.00;;
7116;SDS011;3600;48.568;7.870;2023-05-01T05:17:52;8.43;;;7.72;;
7116;SDS011;3600;48.568;7.870;2023-05-01T05:20:21;9.05;;;7.32;;
7116;SDS011;3600;48.568;7.870;2023-05-01T05:22:48;8.27;;;7.57;;
7116;SDS011;3600;48.568;7.870;2023-05-01T05:25:15;9.23;;;8.32;;
7116;SDS011;3600;48.568;7.870;2023-05-01T05:27:42;8.35;;;7.50;;
7116;SDS011;3600;48.568;7.870;2023-05-01T05:30:09;8.57;;;7.88;;
7116;SDS011;3600;48.568;7.870;2023-05-01T05:32:36;8.55;;;7.80;;
7116;SDS011;3600;48.568;7.870;2023-05-01T05:35:03;8.75;;;7.95;;
7116;SDS011;3600;48.568;7.870;2023-05-01T05:37:30;9.63;;;8.43;;
7116;SDS011;3600;48.568;7.870;2023-05-01T05:39:57;10.10;;;7.85;;
7116;SDS011;3600;48.568;7.870;2023-05-01T05:42:24;8.57;;;7.78;;
7116;SDS011;3600;48.568;7.870;2023-05-01T05:44:50;8.13;;;7.32;;
7116;SDS011;3600;48.568;7.870;2023-05-01T05:47:18;8.80;;;8.00;;
7116;SDS011;3600;48.568;7.870;2023-05-01T05:49:45;8.65;;;7.85;;
7116;SDS011;3600;48.568;7.870;2023-05-01T05:52:12;7.90;;;7.18;;
7116;SDS011;3600;48.568;7.870;2023-05-01T05:54:38;8.18;;;7.47;;
7116;SDS011;3600;48.568;7.870;2023-05-01T05:57:05;8.10;;;7.40;;
7116;SDS011;3600;48.568;7.870;2023-05-01T05:59:32;8.95;;;8.05;;
7116;SDS011;3600;48.568;7.870;2023-05-01T06:01:59;8.70;;;7.90;;
7116;SDS011;3600;48.568;7.870;2023-05-01T06:04:26;8.38;;;7.68;;
7116;SDS011;3600;48.568;7.870;2023-05-01T06:07:02;9.00;;;8.13;;
7116;SDS011;3600;48.568;7.870;2023-05-01T06:09:29;9.18;;;8.27;;
7116;SDS011;3600;48.568;7.870;2023-05-01T06:11:55;8.25;;;7.45;;
7116;SDS011;3600;48.568;7.870;2023-05-01T06:14:46;9.05;;;8.05;;
7116;SDS011;3600;48.568;7.870;2023-05-01T06:17:13;8.82;;;8.02;;
7116;SDS011;3600;48.568;7.870;2023-05-01T06:19:43;9.65;;;8.75;;
7116;SDS011;3600;48.568;7.870;2023-05-01T06:22:10;8.45;;;7.75;;
7116;SDS011;3600;48.568;7.870;2023-05-01T06:24:43;8.23;;;7.53;;
7116;SDS011;3600;48.568;7.870;2023-05-01T06:27:18;9.15;;;8.35;;
7116;SDS011;3600;48.568;7.870;2023-05-01T06:29:45;8.52;;;7.82;;
7116;SDS011;3600;48.568;7.870;2023-05-01T06:32:14;8.90;;;8.00;;
7116;SDS011;3600;48.568;7.870;2023-05-01T06:34:41;10.02;;;8.88;;
7116;SDS011;3600;48.568;7.870;2023-05-01T06:37:09;9.82;;;8.82;;
7116;SDS011;3600;48.568;7.870;2023-05-01T06:39:35;9.57;;;8.68;;
7116;SDS011;3600;48.568;7.870;2023-05-01T06:42:03;9.50;;;8.60;;
7116;SDS011;3600;48.568;7.870;2023-05-01T06:44:33;9.88;;;8.93;;
7116;SDS011;3600;48.568;7.870;2023-05-01T06:47:05;8.82;;;8.02;;
7116;SDS011;3600;48.568;7.870;2023-05-01T06:49:40;9.25;;;8.32;;
7116;SDS011;3600;48.568;7.870;2023-05-01T06:52:16;9.35;;;8.45;;
7116;SDS011;3600;48.568;7.870;2023-05-01T06:54:43;9.38;;;8.48;;
7116;SDS011;3600;48.568;7.870;2023-05-01T06:57:10;10.85;;;9.80;;
7116;SDS011;3600;48.568;7.870;2023-05-01T06:59:37;10.23;;;9.32;;
7116;SDS011;3600;48.568;7.870;2023-05-01T07:02:03;10.75;;;9.73;;
7116;SDS011;3600;48.568;7.870;2023-05-01T07:04:30;11.07;;;10.00;;
7116;SDS011;3600;48.568;7.870;2023-05-01T07:06:57;10.73;;;9.73;;
7116;SDS011;3600;48.568;7.870;2023-05-01T07:09:24;10.45;;;9.38;;
7116;SDS011;3600;48.568;7.870;2023-05-01T07:11:51;10.85;;;9.82;;
7116;SDS011;3600;48.568;7.870;2023-05-01T07:14:38;10.73;;;9.73;;
7116;SDS011;3600;48.568;7.870;2023-05-01T07:17:06;11.38;;;10.27;;
7116;SDS011;3600;48.568;7.870;2023-05-01T07:19:34;10.73;;;9.65;;
7116;SDS011;3600;48.568;7.870;2023-05-01T07:22:01;11.68;;;10.50;;
7116;SDS011;3600;48.568;7.870;2023-05-01T07:24:28;10.88;;;9.77;;
7116;SDS011;3600;48.568;7.870;2023-05-01T07:26:55;9.85;;;8.95;;
7116;SDS011;3600;48.568;7.870;2023-05-01T07:29:23;11.00;;;9.82;;
7116;SDS011;3600;48.568;7.870;2023-05-01T07:31:50;10.43;;;9.40;;
7116;SDS011;3600;48.568;7.870;2023-05-01T07:34:16;10.10;;;9.15;;
7116;SDS011;3600;48.568;7.870;2023-05-01T07:36:44;11.10;;;9.98;;
7116;SDS011;3600;48.568;7.870;2023-05-01T07:39:11;11.45;;;10.15;;
7116;SDS011;3600;48.568;7.870;2023-05-01T07:41:39;11.35;;;10.25;;
7116;SDS011;3600;48.568;7.870;2023-05-01T07:44:06;11.82;;;10.15;;
7116;SDS011;3600;48.568;7.870;2023-05-01T07:46:33;11.27;;;10.25;;
7116;SDS011;3600;48.568;7.870;2023-05-01T07:49:01;11.38;;;10.32;;
7116;SDS011;3600;48.568;7.870;2023-05-01T07:51:29;11.30;;;10.18;;
7116;SDS011;3600;48.568;7.870;2023-05-01T07:53:56;10.93;;;9.93;;
7116;SDS011;3600;48.568;7.870;2023-05-01T07:56:29;11.18;;;10.07;;
7116;SDS011;3600;48.568;7.870;2023-05-01T07:58:57;10.35;;;9.23;;
7116;SDS011;3600;48.568;7.870;2023-05-01T08:01:23;11.05;;;9.95;;
7116;SDS011;3600;48.568;7.870;2023-05-01T08:03:50;11.10;;;10.00;;
7116;SDS011;3600;48.568;7.870;2023-05-01T08:06:17;10.90;;;9.50;;
7116;SDS011;3600;48.568;7.870;2023-05-01T08:08:44;11.75;;;10.75;;
7116;SDS011;3600;48.568;7.870;2023-05-01T08:11:11;10.27;;;9.32;;
7116;SDS011;3600;48.568;7.870;2023-05-01T08:13:38;11.23;;;10.23;;
7116;SDS011;3600;48.568;7.870;2023-05-01T08:16:05;11.05;;;10.02;;
7116;SDS011;3600;48.568;7.870;2023-05-01T08:18:32;11.07;;;9.15;;
7116;SDS011;3600;48.568;7.870;2023-05-01T08:20:59;10.45;;;9.45;;
7116;SDS011;3600;48.568;7.870;2023-05-01T08:23:26;10.10;;;9.20;;
7116;SDS011;3600;48.568;7.870;2023-05-01T08:25:53;10.43;;;9.35;;
7116;SDS011;3600;48.568;7.870;2023-05-01T08:28:21;10.15;;;9.15;;
7116;SDS011;3600;48.568;7.870;2023-05-01T08:30:48;10.02;;;9.13;;
7116;SDS011;3600;48.568;7.870;2023-05-01T08:33:17;10.30;;;9.30;;
7116;SDS011;3600;48.568;7.870;2023-05-01T08:35:44;10.50;;;9.50;;
7116;SDS011;3600;48.568;7.870;2023-05-01T08:38:11;8.98;;;8.18;;
7116;SDS011;3600;48.568;7.870;2023-05-01T08:40:38;9.07;;;8.10;;
7116;SDS011;3600;48.568;7.870;2023-05-01T08:43:09;9.65;;;8.75;;
7116;SDS011;3600;48.568;7.870;2023-05-01T08:45:36;9.95;;;8.48;;
7116;SDS011;3600;48.568;7.870;2023-05-01T08:48:04;9.43;;;8.52;;
7116;SDS011;3600;48.568;7.870;2023-05-01T08:50:33;10.00;;;9.10;;
7116;SDS011;3600;48.568;7.870;2023-05-01T08:53:02;9.63;;;8.38;;
7116;SDS011;3600;48.568;7.870;2023-05-01T08:55:29;9.43;;;8.52;;
7116;SDS011;3600;48.568;7.870;2023-05-01T08:58:00;10.20;;;9.20;;
7116;SDS011;3600;48.568;7.870;2023-05-01T09:00:29;8.88;;;7.97;;
7116;SDS011;3600;48.568;7.870;2023-05-01T09:02:59;9.38;;;8.38;;
7116;SDS011;3600;48.568;7.870;2023-05-01T09:05:29;8.82;;;8.02;;
7116;SDS011;3600;48.568;7.870;2023-05-01T09:07:57;8.15;;;7.45;;
7116;SDS011;3600;48.568;7.870;2023-05-01T09:10:24;7.75;;;7.05;;
7116;SDS011;3600;48.568;7.870;2023-05-01T09:12:56;9.25;;;8.00;;
7116;SDS011;3600;48.568;7.870;2023-05-01T09:15:26;8.70;;;7.80;;
7116;SDS011;3600;48.568;7.870;2023-05-01T09:17:54;8.23;;;7.30;;
7116;SDS011;3600;48.568;7.870;2023-05-01T09:20:22;14.55;;;7.03;;
7116;SDS011;3600;48.568;7.870;2023-05-01T09:22:49;7.47;;;6.78;;
7116;SDS011;3600;48.568;7.870;2023-05-01T09:25:16;8.60;;;7.80;;
7116;SDS011;3600;48.568;7.870;2023-05-01T09:27:44;7.30;;;6.65;;
7116;SDS011;3600;48.568;7.870;2023-05-01T09:30:28;7.57;;;6.97;;
7116;SDS011;3600;48.568;7.870;2023-05-01T09:33:11;7.00;;;6.30;;
7116;SDS011;3600;48.568;7.870;2023-05-01T09:35:52;7.70;;;7.00;;
7116;SDS011;3600;48.568;7.870;2023-05-01T09:38:22;6.93;;;6.32;;
7116;SDS011;3600;48.568;7.870;2023-05-01T09:40:51;7.47;;;6.65;;
7116;SDS011;3600;48.568;7.870;2023-05-01T09:43:25;7.07;;;6.53;;
7116;SDS011;3600;48.568;7.870;2023-05-01T09:46:00;7.82;;;7.22;;
7116;SDS011;3600;48.568;7.870;2023-05-01T09:48:30;7.65;;;7.00;;
7116;SDS011;3600;48.568;7.870;2023-05-01T09:51:01;7.28;;;6.60;;
7116;SDS011;3600;48.568;7.870;2023-05-01T09:53:49;6.43;;;5.93;;
7116;SDS011;3600;48.568;7.870;2023-05-01T09:56:18;6.93;;;6.43;;
7116;SDS011;3600;48.568;7.870;2023-05-01T09:58:48;6.25;;;5.75;;
7116;SDS011;3600;48.568;7.870;2023-05-01T10:01:16;6.10;;;5.60;;
7116;SDS011;3600;48.568;7.870;2023-05-01T10:03:43;6.18;;;5.68;;
7116;SDS011;3600;48.568;7.870;2023-05-01T10:06:11;6.82;;;6.13;;
7116;SDS011;3600;48.568;7.870;2023-05-01T10:08:51;5.97;;;5.47;;
7116;SDS011;3600;48.568;7.870;2023-05-01T10:11:18;5.50;;;5.10;;
7116;SDS011;3600;48.568;7.870;2023-05-01T10:13:44;5.68;;;5.10;;
7116;SDS011;3600;48.568;7.870;2023-05-01T10:16:28;4.68;;;4.28;;
7116;SDS011;3600;48.568;7.870;2023-05-01T10:18:55;6.30;;;5.78;;
7116;SDS011;3600;48.568;7.870;2023-05-01T10:21:23;6.05;;;5.55;;
7116;SDS011;3600;48.568;7.870;2023-05-01T10:23:55;32.67;;;7.95;;
7116;SDS011;3600;48.568;7.870;2023-05-01T10:26:25;5.53;;;5.13;;
7116;SDS011;3600;48.568;7.870;2023-05-01T10:28:53;5.85;;;5.40;;
7116;SDS011;3600;48.568;7.870;2023-05-01T10:31:27;27.38;;;7.53;;
7116;SDS011;3600;48.568;7.870;2023-05-01T10:34:07;6.45;;;5.65;;
7116;SDS011;3600;48.568;7.870;2023-05-01T10:36:37;6.80;;;5.28;;
7116;SDS011;3600;48.568;7.870;2023-05-01T10:39:52;5.43;;;5.03;;
7116;SDS011;3600;48.568;7.870;2023-05-01T10:42:04;8.23;;;4.47;;
7116;SDS011;3600;48.568;7.870;2023-05-01T10:44:32;5.97;;;4.80;;
7116;SDS011;3600;48.568;7.870;2023-05-01T10:47:23;5.40;;;4.95;;
7116;SDS011;3600;48.568;7.870;2023-05-01T10:50:11;5.57;;;5.10;;
7116;SDS011;3600;48.568;7.870;2023-05-01T10:55:40;5.20;;;4.80;;
7116;SDS011;3600;48.568;7.870;2023-05-01T10:58:12;5.32;;;4.82;;
7116;SDS011;3600;48.568;7.870;2023-05-01T11:03:56;4.55;;;4.15;;
7116;SDS011;3600;48.568;7.870;2023-05-01T11:06:25;4.72;;;4.32;;
7116;SDS011;3600;48.568;7.870;2023-05-01T11:08:53;4.10;;;3.75;;
7116;SDS011;3600;48.568;7.870;2023-05-01T11:14:02;5.00;;;4.60;;
7116;SDS011;3600;48.568;7.870;2023-05-01T11:19:04;5.18;;;4.70;;
7116;SDS011;3600;48.568;7.870;2023-05-01T11:21:35;4.65;;;4.25;;
7116;SDS011;3600;48.568;7.870;2023-05-01T11:24:05;6.05;;;4.50;;
7116;SDS011;3600;48.568;7.870;2023-05-01T11:26:36;5.00;;;4.60;;
7116;SDS011;3600;48.568;7.870;2023-05-01T11:29:05;4.25;;;3.90;;
7116;SDS011;3600;48.568;7.870;2023-05-01T11:31:32;5.05;;;4.63;;
7116;SDS011;3600;48.568;7.870;2023-05-01T11:33:59;4.57;;;4.18;;
7116;SDS011;3600;48.568;7.870;2023-05-01T11:36:27;5.07;;;4.53;;
7116;SDS011;3600;48.568;7.870;2023-05-01T11:38:56;4.80;;;4.35;;
7116;SDS011;3600;48.568;7.870;2023-05-01T11:41:24;5.05;;;4.57;;
7116;SDS011;3600;48.568;7.870;2023-05-01T11:43:53;6.18;;;5.57;;
7116;SDS011;3600;48.568;7.870;2023-05-01T11:46:24;3.60;;;3.30;;
7116;SDS011;3600;48.568;7.870;2023-05-01T11:48:55;3.70;;;2.38;;
7116;SDS011;3600;48.568;7.870;2023-05-01T11:51:24;1.80;;;1.70;;
7116;SDS011;3600;48.568;7.870;2023-05-01T11:54:05;2.38;;;2.20;;
7116;SDS011;3600;48.568;7.870;2023-05-01T11:56:35;2.47;;;2.28;;
7116;SDS011;3600;48.568;7.870;2023-05-01T11:59:10;2.90;;;2.63;;
7116;SDS011;3600;48.568;7.870;2023-05-01T12:01:39;4.63;;;2.50;;
7116;SDS011;3600;48.568;7.870;2023-05-01T12:04:08;3.17;;;2.90;;
7116;SDS011;3600;48.568;7.870;2023-05-01T12:06:37;3.45;;;3.00;;
7116;SDS011;3600;48.568;7.870;2023-05-01T12:09:15;5.68;;;4.55;;
7116;SDS011;3600;48.568;7.870;2023-05-01T12:11:45;7.25;;;6.03;;
7116;SDS011;3600;48.568;7.870;2023-05-01T12:14:18;3.92;;;3.63;;
7116;SDS011;3600;48.568;7.870;2023-05-01T12:16:46;5.15;;;3.00;;
7116;SDS011;3600;48.568;7.870;2023-05-01T12:19:14;15.75;;;14.07;;
7116;SDS011;3600;48.568;7.870;2023-05-01T12:21:42;5.18;;;4.07;;
7116;SDS011;3600;48.568;7.870;2023-05-01T12:24:15;4.07;;;3.22;;
7116;SDS011;3600;48.568;7.870;2023-05-01T12:26:44;3.20;;;2.90;;
7116;SDS011;3600;48.568;7.870;2023-05-01T12:29:11;4.72;;;3.25;;
7116;SDS011;3600;48.568;7.870;2023-05-01T12:31:45;2.70;;;2.50;;
7116;SDS011;3600;48.568;7.870;2023-05-01T12:34:13;3.38;;;2.83;;
7116;SDS011;3600;48.568;7.870;2023-05-01T12:36:40;5.10;;;4.60;;
7116;SDS011;3600;48.568;7.870;2023-05-01T12:39:10;3.15;;;2.92;;
7116;SDS011;3600;48.568;7.870;2023-05-01T12:41:41;3.13;;;2.60;;
7116;SDS011;3600;48.568;7.870;2023-05-01T12:44:17;2.60;;;2.50;;
7116;SDS011;3600;48.568;7.870;2023-05-01T12:46:58;3.35;;;2.55;;
7116;SDS011;3600;48.568;7.870;2023-05-01T12:49:29;2.65;;;2.45;;
7116;SDS011;3600;48.568;7.870;2023-05-01T12:51:58;2.60;;;2.40;;
7116;SDS011;3600;48.568;7.870;2023-05-01T12:54:26;2.80;;;2.60;;
7116;SDS011;3600;48.568;7.870;2023-05-01T12:57:04;3.00;;;2.80;;
7116;SDS011;3600;48.568;7.870;2023-05-01T12:59:34;2.72;;;2.53;;
7116;SDS011;3600;48.568;7.870;2023-05-01T13:02:03;2.80;;;2.60;;
7116;SDS011;3600;48.568;7.870;2023-05-01T13:04:45;2.53;;;2.33;;
7116;SDS011;3600;48.568;7.870;2023-05-01T13:07:15;2.72;;;2.53;;
7116;SDS011;3600;48.568;7.870;2023-05-01T13:09:53;2.83;;;2.53;;
7116;SDS011;3600;48.568;7.870;2023-05-01T13:12:22;2.40;;;2.10;;
7116;SDS011;3600;48.568;7.870;2023-05-01T13:14:50;2.35;;;2.10;;
7116;SDS011;3600;48.568;7.870;2023-05-01T13:17:21;2.05;;;1.95;;
7116;SDS011;3600;48.568;7.870;2023-05-01T13:19:56;2.95;;;2.75;;
7116;SDS011;3600;48.568;7.870;2023-05-01T13:22:33;2.65;;;2.45;;
7116;SDS011;3600;48.568;7.870;2023-05-01T13:25:03;2.10;;;2.00;;
7116;SDS011;3600;48.568;7.870;2023-05-01T13:27:39;1.98;;;1.88;;
7116;SDS011;3600;48.568;7.870;2023-05-01T13:30:12;2.30;;;2.10;;
7116;SDS011;3600;48.568;7.870;2023-05-01T13:32:39;1.70;;;1.60;;
7116;SDS011;3600;48.568;7.870;2023-05-01T13:35:07;2.88;;;2.50;;
7116;SDS011;3600;48.568;7.870;2023-05-01T13:37:34;2.40;;;2.30;;
7116;SDS011;3600;48.568;7.870;2023-05-01T13:40:01;2.60;;;2.40;;
7116;SDS011;3600;48.568;7.870;2023-05-01T13:42:28;3.00;;;2.70;;
7116;SDS011;3600;48.568;7.870;2023-05-01T13:44:56;3.10;;;2.90;;
7116;SDS011;3600;48.568;7.870;2023-05-01T13:47:23;3.58;;;3.28;;
7116;SDS011;3600;48.568;7.870;2023-05-01T13:49:52;7.03;;;3.08;;
7116;SDS011;3600;48.568;7.870;2023-05-01T13:52:19;3.30;;;3.10;;
7116;SDS011;3600;48.568;7.870;2023-05-01T13:54:46;3.50;;;3.20;;
7116;SDS011;3600;48.568;7.870;2023-05-01T13:57:13;3.80;;;3.60;;
7116;SDS011;3600;48.568;7.870;2023-05-01T13:59:43;3.42;;;3.22;;
7116;SDS011;3600;48.568;7.870;2023-05-01T14:02:18;3.72;;;3.42;;
7116;SDS011;3600;48.568;7.870;2023-05-01T14:04:47;2.97;;;2.78;;
7116;SDS011;3600;48.568;7.870;2023-05-01T14:07:16;3.83;;;3.28;;
7116;SDS011;3600;48.568;7.870;2023-05-01T14:09:57;4.30;;;3.88;;
7116;SDS011;3600;48.568;7.870;2023-05-01T14:12:28;4.32;;;3.92;;
7116;SDS011;3600;48.568;7.870;2023-05-01T14:14:56;7.80;;;4.45;;
7116;SDS011;3600;48.568;7.870;2023-05-01T14:17:28;4.25;;;3.85;;
7116;SDS011;3600;48.568;7.870;2023-05-01T14:19:56;7.32;;;5.53;;
7116;SDS011;3600;48.568;7.870;2023-05-01T14:22:24;5.18;;;4.68;;
7116;SDS011;3600;48.568;7.870;2023-05-01T14:24:56;5.47;;;4.85;;
7116;SDS011;3600;48.568;7.870;2023-05-01T14:27:24;4.68;;;4.20;;
7116;SDS011;3600;48.568;7.870;2023-05-01T14:29:51;7.15;;;5.72;;
7116;SDS011;3600;48.568;7.870;2023-05-01T14:32:19;4.95;;;4.43;;
7116;SDS011;3600;48.568;7.870;2023-05-01T14:34:46;7.60;;;5.28;;
7116;SDS011;3600;48.568;7.870;2023-05-01T14:37:13;4.93;;;4.53;;
7116;SDS011;3600;48.568;7.870;2023-05-01T14:39:40;5.80;;;4.38;;
7116;SDS011;3600;48.568;7.870;2023-05-01T14:42:07;4.90;;;4.50;;
7116;SDS011;3600;48.568;7.870;2023-05-01T14:44:34;4.28;;;3.97;;
7116;SDS011;3600;48.568;7.870;2023-05-01T14:47:05;4.15;;;3.47;;
7116;SDS011;3600;48.568;7.870;2023-05-01T14:49:37;5.38;;;3.65;;
7116;SDS011;3600;48.568;7.870;2023-05-01T14:52:06;4.38;;;4.03;;
7116;SDS011;3600;48.568;7.870;2023-05-01T14:54:34;4.00;;;3.70;;
7116;SDS011;3600;48.568;7.870;2023-05-01T14:57:10;4.28;;;3.97;;
7116;SDS011;3600;48.568;7.870;2023-05-01T14:59:38;6.22;;;4.45;;
7116;SDS011;3600;48.568;7.870;2023-05-01T15:02:04;4.22;;;3.90;;
7116;SDS011;3600;48.568;7.870;2023-05-01T15:04:31;4.47;;;4.07;;
7116;SDS011;3600;48.568;7.870;2023-05-01T15:06:58;4.30;;;4.00;;
7116;SDS011;3600;48.568;7.870;2023-05-01T15:09:25;5.00;;;4.60;;
7116;SDS011;3600;48.568;7.870;2023-05-01T15:11:52;4.35;;;4.05;;
7116;SDS011;3600;48.568;7.870;2023-05-01T15:14:19;3.78;;;3.47;;
7116;SDS011;3600;48.568;7.870;2023-05-01T15:16:46;4.95;;;4.47;;
7116;SDS011;3600;48.568;7.870;2023-05-01T15:19:12;4.60;;;4.00;;
7116;SDS011;3600;48.568;7.870;2023-05-01T15:21:39;3.72;;;3.42;;
7116;SDS011;3600;48.568;7.870;2023-05-01T15:24:06;4.28;;;3.97;;
7116;SDS011;3600;48.568;7.870;2023-05-01T15:26:33;4.18;;;3.88;;
7116;SDS011;3600;48.568;7.870;2023-05-01T15:28:59;4.10;;;3.78;;
7116;SDS011;3600;48.568;7.870;2023-05-01T15:31:26;4.00;;;3.70;;
7116;SDS011;3600;48.568;7.870;2023-05-01T15:33:53;4.45;;;4.13;;
7116;SDS011;3600;48.568;7.870;2023-05-01T15:36:20;4.63;;;4.28;;
7116;SDS011;3600;48.568;7.870;2023-05-01T15:38:47;5.32;;;3.75;;
7116;SDS011;3600;48.568;7.870;2023-05-01T15:41:13;4.20;;;3.90;;
7116;SDS011;3600;48.568;7.870;2023-05-01T15:43:44;4.32;;;3.95;;
7116;SDS011;3600;48.568;7.870;2023-05-01T15:46:10;4.47;;;4.07;;
7116;SDS011;3600;48.568;7.870;2023-05-01T15:48:37;4.65;;;4.25;;
7116;SDS011;3600;48.568;7.870;2023-05-01T15:51:04;4.43;;;4.10;;
7116;SDS011;3600;48.568;7.870;2023-05-01T15:53:31;4.35;;;3.95;;
7116;SDS011;3600;48.568;7.870;2023-05-01T15:55:58;5.30;;;4.68;;
7116;SDS011;3600;48.568;7.870;2023-05-01T15:58:25;5.30;;;4.85;;
7116;SDS011;3600;48.568;7.870;2023-05-01T16:00:51;5.18;;;4.45;;